sensor_id;sensor_type;location;lat;lon;timestamp;P1;durP1;ratioP1;P2;durP2;ratioP2
23113;SDS011;11726;50.122;8.832;2023-07-31T00:01:13;5.72;;;1.50;;
23113;SDS011;11726;50.122;8.832;2023-07-31T00:03:40;2.85;;;1.38;;
23113;SDS011;11726;50.122;8.832;2023-07-31T00:06:06;2.97;;;1.23;;
23113;SDS011;11726;50.122;8.832;2023-07-31T00:08:33;5.38;;;1.70;;
23113;SDS011;11726;50.122;8.832;2023-07-31T00:11:00;6.90;;;1.35;;
23113;SDS011;11726;50.122;8.832;2023-07-31T00:13:27;3.45;;;1.60;;
23113;SDS011;11726;50.122;8.832;2023-07-31T00:15:53;3.78;;;1.27;;
23113;SDS011;11726;50.122;8.832;2023-07-31T00:18:21;2.58;;;1.40;;
23113;SDS011;11726;50.122;8.832;2023-07-31T00:20:48;1.80;;;1.30;;
23113;SDS011;11726;50.122;8.832;2023-07-31T00:23:14;4.93;;;1.60;;
23113;SDS011;11726;50.122;8.832;2023-07-31T00:25:41;5.45;;;1.40;;
23113;SDS011;11726;50.122;8.832;2023-07-31T00:28:08;2.55;;;1.20;;
23113;SDS011;11726;50.122;8.832;2023-07-31T00:30:34;5.60;;;1.67;;
23113;SDS011;11726;50.122;8.832;2023-07-31T00:33:01;2.92;;;1.33;;
23113;SDS011;11726;50.122;8.832;2023-07-31T00:35:28;2.88;;;1.20;;
23113;SDS011;11726;50.122;8.832;2023-07-31T00:37:56;4.50;;;1.25;;
23113;SDS011;11726;50.122;8.832;2023-07-31T00:40:24;2.60;;;1.30;;
23113;SDS011;11726;50.122;8.832;2023-07-31T00:42:50;10.32;;;1.35;;
23113;SDS011;11726;50.122;8.832;2023-07-31T00:45:17;5.22;;;1.58;;
23113;SDS011;11726;50.122;8.832;2023-07-31T00:47:44;1.85;;;1.23;;
23113;SDS011;11726;50.122;8.832;2023-07-31T00:50:11;1.50;;;0.88;;
23113;SDS011;11726;50.122;8.832;2023-07-31T00:52:38;4.43;;;1.55;;
23113;SDS011;11726;50.122;8.832;2023-07-31T00:55:04;1.88;;;1.40;;
23113;SDS011;11726;50.122;8.832;2023-07-31T00:57:32;4.32;;;1.30;;
23113;SDS011;11726;50.122;8.832;2023-07-31T01:00:00;3.03;;;1.42;;
23113;SDS011;11726;50.122;8.832;2023-07-31T01:02:27;3.78;;;1.30;;
23113;SDS011;11726;50.122;8.832;2023-07-31T01:04:54;1.23;;;1.13;;
23113;SDS011;11726;50.122;8.832;2023-07-31T01:07:30;1.92;;;1.25;;
23113;SDS011;11726;50.122;8.832;2023-07-31T01:10:06;3.90;;;1.10;;
23113;SDS011;11726;50.122;8.832;2023-07-31T01:12:40;4.70;;;1.20;;
23113;SDS011;11726;50.122;8.832;2023-07-31T01:15:09;2.10;;;1.20;;
23113;SDS011;11726;50.122;8.832;2023-07-31T01:17:37;3.80;;;1.40;;
23113;SDS011;11726;50.122;8.832;2023-07-31T01:20:10;2.88;;;1.30;;
23113;SDS011;11726;50.122;8.832;2023-07-31T01:28:07;2.97;;;1.05;;
23113;SDS011;11726;50.122;8.832;2023-07-31T01:30:43;1.92;;;1.33;;
23113;SDS011;11726;50.122;8.832;2023-07-31T01:33:13;5.53;;;1.50;;
23113;SDS011;11726;50.122;8.832;2023-07-31T01:35:43;2.78;;;1.42;;
23113;SDS011;11726;50.122;8.832;2023-07-31T01:38:11;4.72;;;1.85;;
23113;SDS011;11726;50.122;8.832;2023-07-31T01:40:41;4.18;;;1.55;;
23113;SDS011;11726;50.122;8.832;2023-07-31T01:43:08;3.10;;;1.38;;
23113;SDS011;11726;50.122;8.832;2023-07-31T01:45:34;3.00;;;1.67;;
23113;SDS011;11726;50.122;8.832;2023-07-31T01:48:01;2.58;;;1.27;;
23113;SDS011;11726;50.122;8.832;2023-07-31T01:50:28;5.15;;;1.38;;
23113;SDS011;11726;50.122;8.832;2023-07-31T01:52:54;3.08;;;1.60;;
23113;SDS011;11726;50.122;8.832;2023-07-31T01:55:21;3.47;;;1.40;;
23113;SDS011;11726;50.122;8.832;2023-07-31T01:57:47;4.10;;;1.55;;
23113;SDS011;11726;50.122;8.832;2023-07-31T02:00:14;5.72;;;1.58;;
23113;SDS011;11726;50.122;8.832;2023-07-31T02:02:41;5.53;;;1.50;;
23113;SDS011;11726;50.122;8.832;2023-07-31T02:05:08;10.63;;;1.60;;
23113;SDS011;11726;50.122;8.832;2023-07-31T02:07:34;4.28;;;1.52;;
23113;SDS011;11726;50.122;8.832;2023-07-31T02:10:01;3.15;;;1.30;;
23113;SDS011;11726;50.122;8.832;2023-07-31T02:12:28;7.25;;;1.20;;
23113;SDS011;11726;50.122;8.832;2023-07-31T02:14:58;4.43;;;1.88;;
23113;SDS011;11726;50.122;8.832;2023-07-31T02:17:24;3.47;;;1.48;;
23113;SDS011;11726;50.122;8.832;2023-07-31T02:19:51;4.85;;;1.92;;
23113;SDS011;11726;50.122;8.832;2023-07-31T02:22:17;6.85;;;1.85;;
23113;SDS011;11726;50.122;8.832;2023-07-31T02:24:44;4.60;;;1.30;;
23113;SDS011;11726;50.122;8.832;2023-07-31T02:27:11;2.45;;;1.50;;
23113;SDS011;11726;50.122;8.832;2023-07-31T02:29:38;7.10;;;1.75;;
23113;SDS011;11726;50.122;8.832;2023-07-31T02:32:04;2.03;;;1.23;;
23113;SDS011;11726;50.122;8.832;2023-07-31T02:34:31;6.53;;;1.45;;
23113;SDS011;11726;50.122;8.832;2023-07-31T02:36:58;5.38;;;1.55;;
23113;SDS011;11726;50.122;8.832;2023-07-31T02:39:24;5.00;;;1.88;;
23113;SDS011;11726;50.122;8.832;2023-07-31T02:41:51;2.70;;;1.40;;
23113;SDS011;11726;50.122;8.832;2023-07-31T02:44:18;4.13;;;1.40;;
23113;SDS011;11726;50.122;8.832;2023-07-31T02:46:46;4.07;;;1.50;;
23113;SDS011;11726;50.122;8.832;2023-07-31T02:49:13;2.70;;;1.23;;
23113;SDS011;11726;50.122;8.832;2023-07-31T02:51:39;5.03;;;1.55;;
23113;SDS011;11726;50.122;8.832;2023-07-31T02:54:06;5.30;;;1.60;;
23113;SDS011;11726;50.122;8.832;2023-07-31T02:56:32;1.98;;;1.55;;
23113;SDS011;11726;50.122;8.832;2023-07-31T02:58:59;6.93;;;1.83;;
23113;SDS011;11726;50.122;8.832;2023-07-31T03:01:26;4.82;;;1.50;;
23113;SDS011;11726;50.122;8.832;2023-07-31T03:03:52;7.80;;;1.60;;
23113;SDS011;11726;50.122;8.832;2023-07-31T03:06:19;3.45;;;1.45;;
23113;SDS011;11726;50.122;8.832;2023-07-31T03:08:46;5.28;;;2.00;;
23113;SDS011;11726;50.122;8.832;2023-07-31T03:11:12;4.88;;;1.77;;
23113;SDS011;11726;50.122;8.832;2023-07-31T03:13:39;8.82;;;1.60;;
23113;SDS011;11726;50.122;8.832;2023-07-31T03:16:06;3.67;;;1.58;;
23113;SDS011;11726;50.122;8.832;2023-07-31T03:18:32;3.60;;;1.65;;
23113;SDS011;11726;50.122;8.832;2023-07-31T03:20:59;4.57;;;1.80;;
23113;SDS011;11726;50.122;8.832;2023-07-31T03:23:26;2.58;;;1.50;;
23113;SDS011;11726;50.122;8.832;2023-07-31T03:25:56;4.72;;;1.77;;
23113;SDS011;11726;50.122;8.832;2023-07-31T03:28:23;2.67;;;1.67;;
23113;SDS011;11726;50.122;8.832;2023-07-31T03:30:51;4.28;;;1.70;;
23113;SDS011;11726;50.122;8.832;2023-07-31T03:33:18;5.93;;;1.70;;
23113;SDS011;11726;50.122;8.832;2023-07-31T03:35:45;5.97;;;1.90;;
23113;SDS011;11726;50.122;8.832;2023-07-31T03:38:12;4.18;;;1.83;;
23113;SDS011;11726;50.122;8.832;2023-07-31T03:40:39;4.97;;;1.95;;
23113;SDS011;11726;50.122;8.832;2023-07-31T03:43:05;8.75;;;1.88;;
23113;SDS011;11726;50.122;8.832;2023-07-31T03:45:32;3.70;;;1.65;;
23113;SDS011;11726;50.122;8.832;2023-07-31T03:47:59;6.53;;;1.83;;
23113;SDS011;11726;50.122;8.832;2023-07-31T03:50:25;4.85;;;1.70;;
23113;SDS011;11726;50.122;8.832;2023-07-31T03:52:52;3.40;;;1.80;;
23113;SDS011;11726;50.122;8.832;2023-07-31T03:55:19;47.92;;;3.30;;
23113;SDS011;11726;50.122;8.832;2023-07-31T03:57:45;4.47;;;1.70;;
23113;SDS011;11726;50.122;8.832;2023-07-31T04:00:12;6.22;;;2.00;;
23113;SDS011;11726;50.122;8.832;2023-07-31T04:02:39;4.70;;;2.13;;
23113;SDS011;11726;50.122;8.832;2023-07-31T04:05:06;4.70;;;1.73;;
23113;SDS011;11726;50.122;8.832;2023-07-31T04:07:33;5.72;;;1.80;;
23113;SDS011;11726;50.122;8.832;2023-07-31T04:10:00;3.33;;;1.88;;
23113;SDS011;11726;50.122;8.832;2023-07-31T04:12:26;4.32;;;1.88;;
23113;SDS011;11726;50.122;8.832;2023-07-31T04:14:53;3.75;;;1.65;;
23113;SDS011;11726;50.122;8.832;2023-07-31T04:17:19;5.53;;;1.88;;
23113;SDS011;11726;50.122;8.832;2023-07-31T04:19:46;4.82;;;1.85;;
23113;SDS011;11726;50.122;8.832;2023-07-31T04:22:13;2.25;;;1.40;;
23113;SDS011;11726;50.122;8.832;2023-07-31T04:24:40;4.38;;;2.10;;
23113;SDS011;11726;50.122;8.832;2023-07-31T04:27:06;8.90;;;2.38;;
23113;SDS011;11726;50.122;8.832;2023-07-31T04:29:33;3.53;;;1.60;;
23113;SDS011;11726;50.122;8.832;2023-07-31T04:32:00;6.55;;;1.90;;
23113;SDS011;11726;50.122;8.832;2023-07-31T04:34:26;2.33;;;1.77;;
23113;SDS011;11726;50.122;8.832;2023-07-31T04:36:53;7.55;;;1.90;;
23113;SDS011;11726;50.122;8.832;2023-07-31T04:39:20;8.57;;;1.60;;
23113;SDS011;11726;50.122;8.832;2023-07-31T04:41:46;8.52;;;1.83;;
23113;SDS011;11726;50.122;8.832;2023-07-31T04:44:13;5.35;;;2.20;;
23113;SDS011;11726;50.122;8.832;2023-07-31T04:46:40;3.30;;;1.77;;
23113;SDS011;11726;50.122;8.832;2023-07-31T04:49:07;4.55;;;1.70;;
23113;SDS011;11726;50.122;8.832;2023-07-31T04:51:34;3.65;;;1.98;;
23113;SDS011;11726;50.122;8.832;2023-07-31T04:54:00;6.15;;;1.73;;
23113;SDS011;11726;50.122;8.832;2023-07-31T04:56:27;7.80;;;2.20;;
23113;SDS011;11726;50.122;8.832;2023-07-31T04:58:54;3.22;;;1.80;;
23113;SDS011;11726;50.122;8.832;2023-07-31T05:01:21;4.40;;;1.88;;
23113;SDS011;11726;50.122;8.832;2023-07-31T05:03:47;9.63;;;2.10;;
23113;SDS011;11726;50.122;8.832;2023-07-31T05:06:14;8.20;;;2.10;;
23113;SDS011;11726;50.122;8.832;2023-07-31T05:08:41;6.30;;;2.03;;
23113;SDS011;11726;50.122;8.832;2023-07-31T05:11:08;4.38;;;1.48;;
23113;SDS011;11726;50.122;8.832;2023-07-31T05:13:34;5.40;;;1.92;;
23113;SDS011;11726;50.122;8.832;2023-07-31T05:16:01;6.78;;;2.03;;
23113;SDS011;11726;50.122;8.832;2023-07-31T05:18:28;5.20;;;2.55;;
23113;SDS011;11726;50.122;8.832;2023-07-31T05:20:55;5.70;;;1.77;;
23113;SDS011;11726;50.122;8.832;2023-07-31T05:23:22;7.57;;;1.73;;
23113;SDS011;11726;50.122;8.832;2023-07-31T05:25:48;4.13;;;1.50;;
23113;SDS011;11726;50.122;8.832;2023-07-31T05:28:15;6.70;;;1.77;;
23113;SDS011;11726;50.122;8.832;2023-07-31T05:30:42;4.28;;;2.03;;
23113;SDS011;11726;50.122;8.832;2023-07-31T05:33:08;5.05;;;1.92;;
23113;SDS011;11726;50.122;8.832;2023-07-31T05:35:38;6.15;;;1.88;;
23113;SDS011;11726;50.122;8.832;2023-07-31T05:38:06;5.63;;;1.73;;
23113;SDS011;11726;50.122;8.832;2023-07-31T05:40:33;7.47;;;2.13;;
23113;SDS011;11726;50.122;8.832;2023-07-31T05:42:59;5.95;;;2.40;;
23113;SDS011;11726;50.122;8.832;2023-07-31T05:45:26;6.10;;;2.00;;
23113;SDS011;11726;50.122;8.832;2023-07-31T05:47:53;5.95;;;1.70;;
23113;SDS011;11726;50.122;8.832;2023-07-31T05:50:20;6.10;;;1.90;;
23113;SDS011;11726;50.122;8.832;2023-07-31T05:52:46;4.38;;;1.75;;
23113;SDS011;11726;50.122;8.832;2023-07-31T05:55:13;3.45;;;1.95;;
23113;SDS011;11726;50.122;8.832;2023-07-31T05:57:40;5.78;;;1.98;;
23113;SDS011;11726;50.122;8.832;2023-07-31T06:00:06;5.28;;;2.00;;
23113;SDS011;11726;50.122;8.832;2023-07-31T06:02:34;8.60;;;2.17;;
23113;SDS011;11726;50.122;8.832;2023-07-31T06:05:03;4.78;;;2.30;;
23113;SDS011;11726;50.122;8.832;2023-07-31T06:07:32;15.23;;;2.25;;
23113;SDS011;11726;50.122;8.832;2023-07-31T06:09:58;3.15;;;1.70;;
23113;SDS011;11726;50.122;8.832;2023-07-31T06:12:31;5.00;;;1.95;;
23113;SDS011;11726;50.122;8.832;2023-07-31T06:14:58;9.63;;;2.40;;
23113;SDS011;11726;50.122;8.832;2023-07-31T06:17:25;3.45;;;1.98;;
23113;SDS011;11726;50.122;8.832;2023-07-31T06:19:52;5.60;;;2.00;;
23113;SDS011;11726;50.122;8.832;2023-07-31T06:22:19;5.05;;;2.00;;
23113;SDS011;11726;50.122;8.832;2023-07-31T06:24:46;5.07;;;2.00;;
23113;SDS011;11726;50.122;8.832;2023-07-31T06:27:12;3.58;;;1.80;;
23113;SDS011;11726;50.122;8.832;2023-07-31T06:29:39;7.38;;;1.70;;
23113;SDS011;11726;50.122;8.832;2023-07-31T06:32:06;3.22;;;1.60;;
23113;SDS011;11726;50.122;8.832;2023-07-31T06:34:33;3.80;;;1.73;;
23113;SDS011;11726;50.122;8.832;2023-07-31T06:37:00;4.43;;;1.80;;
23113;SDS011;11726;50.122;8.832;2023-07-31T06:39:27;4.93;;;2.10;;
23113;SDS011;11726;50.122;8.832;2023-07-31T06:41:53;5.55;;;2.33;;
23113;SDS011;11726;50.122;8.832;2023-07-31T06:44:20;4.95;;;1.85;;
23113;SDS011;11726;50.122;8.832;2023-07-31T06:46:47;4.60;;;1.92;;
23113;SDS011;11726;50.122;8.832;2023-07-31T06:49:13;4.53;;;1.63;;
23113;SDS011;11726;50.122;8.832;2023-07-31T06:51:42;6.40;;;1.90;;
23113;SDS011;11726;50.122;8.832;2023-07-31T06:54:10;6.72;;;2.15;;
23113;SDS011;11726;50.122;8.832;2023-07-31T06:56:37;3.78;;;2.17;;
23113;SDS011;11726;50.122;8.832;2023-07-31T06:59:06;4.60;;;1.95;;
23113;SDS011;11726;50.122;8.832;2023-07-31T07:01:33;5.82;;;2.15;;
23113;SDS011;11726;50.122;8.832;2023-07-31T07:03:59;8.68;;;2.00;;
23113;SDS011;11726;50.122;8.832;2023-07-31T07:06:26;6.00;;;1.90;;
23113;SDS011;11726;50.122;8.832;2023-07-31T07:08:53;4.32;;;1.75;;
23113;SDS011;11726;50.122;8.832;2023-07-31T07:11:19;2.70;;;1.70;;
23113;SDS011;11726;50.122;8.832;2023-07-31T07:13:46;3.75;;;1.63;;
23113;SDS011;11726;50.122;8.832;2023-07-31T07:16:12;2.47;;;1.83;;
23113;SDS011;11726;50.122;8.832;2023-07-31T07:18:39;4.80;;;1.85;;
23113;SDS011;11726;50.122;8.832;2023-07-31T07:21:19;6.63;;;1.90;;
23113;SDS011;11726;50.122;8.832;2023-07-31T07:23:46;7.03;;;2.08;;
23113;SDS011;11726;50.122;8.832;2023-07-31T07:26:12;5.30;;;2.40;;
23113;SDS011;11726;50.122;8.832;2023-07-31T07:28:39;2.53;;;1.70;;
23113;SDS011;11726;50.122;8.832;2023-07-31T07:31:06;5.85;;;2.10;;
23113;SDS011;11726;50.122;8.832;2023-07-31T07:33:32;7.75;;;1.83;;
23113;SDS011;11726;50.122;8.832;2023-07-31T07:36:00;5.68;;;2.40;;
23113;SDS011;11726;50.122;8.832;2023-07-31T07:38:28;8.85;;;1.75;;
23113;SDS011;11726;50.122;8.832;2023-07-31T07:40:54;3.13;;;1.80;;
23113;SDS011;11726;50.122;8.832;2023-07-31T07:43:21;6.55;;;1.70;;
23113;SDS011;11726;50.122;8.832;2023-07-31T07:45:47;4.40;;;1.98;;
23113;SDS011;11726;50.122;8.832;2023-07-31T07:48:14;5.15;;;1.83;;
23113;SDS011;11726;50.122;8.832;2023-07-31T07:50:43;4.65;;;1.92;;
23113;SDS011;11726;50.122;8.832;2023-07-31T07:53:10;8.60;;;2.10;;
23113;SDS011;11726;50.122;8.832;2023-07-31T07:55:36;3.78;;;1.88;;
23113;SDS011;11726;50.122;8.832;2023-07-31T07:58:03;5.28;;;1.85;;
23113;SDS011;11726;50.122;8.832;2023-07-31T08:00:30;4.10;;;2.03;;
23113;SDS011;11726;50.122;8.832;2023-07-31T08:02:56;3.80;;;1.80;;
23113;SDS011;11726;50.122;8.832;2023-07-31T08:05:24;4.53;;;2.30;;
23113;SDS011;11726;50.122;8.832;2023-07-31T08:07:51;9.15;;;2.17;;
23113;SDS011;11726;50.122;8.832;2023-07-31T08:10:17;2.42;;;1.80;;
23113;SDS011;11726;50.122;8.832;2023-07-31T08:12:44;4.57;;;1.98;;
23113;SDS011;11726;50.122;8.832;2023-07-31T08:15:11;4.10;;;1.85;;
23113;SDS011;11726;50.122;8.832;2023-07-31T08:17:38;5.28;;;2.40;;
23113;SDS011;11726;50.122;8.832;2023-07-31T08:20:04;9.40;;;2.10;;
23113;SDS011;11726;50.122;8.832;2023-07-31T08:22:32;5.63;;;2.10;;
23113;SDS011;11726;50.122;8.832;2023-07-31T08:24:58;3.88;;;1.95;;
23113;SDS011;11726;50.122;8.832;2023-07-31T08:27:25;3.55;;;2.00;;
23113;SDS011;11726;50.122;8.832;2023-07-31T08:29:52;6.07;;;2.13;;
23113;SDS011;11726;50.122;8.832;2023-07-31T08:32:19;5.65;;;2.13;;
23113;SDS011;11726;50.122;8.832;2023-07-31T08:34:45;4.80;;;2.28;;
23113;SDS011;11726;50.122;8.832;2023-07-31T08:37:12;2.50;;;1.83;;
23113;SDS011;11726;50.122;8.832;2023-07-31T08:39:38;9.80;;;2.13;;
23113;SDS011;11726;50.122;8.832;2023-07-31T08:42:09;4.28;;;1.95;;
23113;SDS011;11726;50.122;8.832;2023-07-31T08:44:35;11.38;;;2.35;;
23113;SDS011;11726;50.122;8.832;2023-07-31T08:47:03;5.88;;;2.00;;
23113;SDS011;11726;50.122;8.832;2023-07-31T08:49:30;3.38;;;1.80;;
23113;SDS011;11726;50.122;8.832;2023-07-31T08:51:58;3.60;;;1.88;;
23113;SDS011;11726;50.122;8.832;2023-07-31T08:54:25;5.13;;;2.03;;
23113;SDS011;11726;50.122;8.832;2023-07-31T08:56:55;6.50;;;1.80;;
23113;SDS011;11726;50.122;8.832;2023-07-31T08:59:23;10.45;;;2.53;;
23113;SDS011;11726;50.122;8.832;2023-07-31T09:01:53;4.75;;;1.83;;
23113;SDS011;11726;50.122;8.832;2023-07-31T09:04:21;4.97;;;2.00;;
23113;SDS011;11726;50.122;8.832;2023-07-31T09:06:49;4.82;;;2.00;;
23113;SDS011;11726;50.122;8.832;2023-07-31T09:09:20;5.28;;;2.10;;
23113;SDS011;11726;50.122;8.832;2023-07-31T09:11:47;5.72;;;2.08;;
23113;SDS011;11726;50.122;8.832;2023-07-31T09:14:15;4.25;;;2.03;;
23113;SDS011;11726;50.122;8.832;2023-07-31T09:16:53;5.72;;;2.00;;
23113;SDS011;11726;50.122;8.832;2023-07-31T09:19:32;7.07;;;2.17;;
23113;SDS011;11726;50.122;8.832;2023-07-31T09:22:00;6.18;;;1.98;;
23113;SDS011;11726;50.122;8.832;2023-07-31T09:24:28;5.57;;;2.17;;
23113;SDS011;11726;50.122;8.832;2023-07-31T09:26:56;4.20;;;2.10;;
23113;SDS011;11726;50.122;8.832;2023-07-31T09:29:27;2.25;;;1.63;;
23113;SDS011;11726;50.122;8.832;2023-07-31T09:31:55;6.10;;;1.98;;
23113;SDS011;11726;50.122;8.832;2023-07-31T09:34:28;10.20;;;2.00;;
23113;SDS011;11726;50.122;8.832;2023-07-31T09:37:02;6.60;;;1.93;;
23113;SDS011;11726;50.122;8.832;2023-07-31T09:39:29;6.15;;;2.20;;
23113;SDS011;11726;50.122;8.832;2023-07-31T09:41:56;4.07;;;2.25;;
23113;SDS011;11726;50.122;8.832;2023-07-31T09:44:37;3.72;;;2.10;;
23113;SDS011;11726;50.122;8.832;2023-07-31T09:47:05;7.63;;;2.25;;
23113;SDS011;11726;50.122;8.832;2023-07-31T09:49:32;2.97;;;2.22;;
23113;SDS011;11726;50.122;8.832;2023-07-31T09:51:59;8.77;;;1.98;;
23113;SDS011;11726;50.122;8.832;2023-07-31T09:54:26;3.50;;;1.80;;
23113;SDS011;11726;50.122;8.832;2023-07-31T09:56:53;5.28;;;2.13;;
23113;SDS011;11726;50.122;8.832;2023-07-31T09:59:21;6.45;;;2.40;;
23113;SDS011;11726;50.122;8.832;2023-07-31T10:01:50;3.85;;;2.03;;
23113;SDS011;11726;50.122;8.832;2023-07-31T10:04:17;9.00;;;2.47;;
23113;SDS011;11726;50.122;8.832;2023-07-31T10:06:47;5.40;;;2.20;;
23113;SDS011;11726;50.122;8.832;2023-07-31T10:09:16;3.75;;;1.98;;
23113;SDS011;11726;50.122;8.832;2023-07-31T10:11:51;4.38;;;2.10;;
23113;SDS011;11726;50.122;8.832;2023-07-31T10:14:25;6.93;;;2.17;;
23113;SDS011;11726;50.122;8.832;2023-07-31T10:16:53;4.60;;;2.40;;
23113;SDS011;11726;50.122;8.832;2023-07-31T10:19:20;4.63;;;2.35;;
23113;SDS011;11726;50.122;8.832;2023-07-31T10:21:48;7.43;;;2.53;;
23113;SDS011;11726;50.122;8.832;2023-07-31T10:24:15;6.55;;;2.33;;
23113;SDS011;11726;50.122;8.832;2023-07-31T10:26:43;5.03;;;2.00;;
23113;SDS011;11726;50.122;8.832;2023-07-31T10:29:12;3.45;;;2.20;;
23113;SDS011;11726;50.122;8.832;2023-07-31T10:31:39;4.57;;;2.30;;
23113;SDS011;11726;50.122;8.832;2023-07-31T10:34:07;5.97;;;2.17;;
23113;SDS011;11726;50.122;8.832;2023-07-31T10:36:33;3.55;;;2.00;;
23113;SDS011;11726;50.122;8.832;2023-07-31T10:39:00;3.25;;;2.10;;
23113;SDS011;11726;50.122;8.832;2023-07-31T10:41:30;3.05;;;2.05;;
23113;SDS011;11726;50.122;8.832;2023-07-31T10:43:58;6.10;;;2.17;;
23113;SDS011;11726;50.122;8.832;2023-07-31T10:46:28;5.32;;;1.75;;
23113;SDS011;11726;50.122;8.832;2023-07-31T10:49:00;5.35;;;1.92;;
23113;SDS011;11726;50.122;8.832;2023-07-31T10:51:34;6.45;;;2.38;;
23113;SDS011;11726;50.122;8.832;2023-07-31T10:54:11;4.38;;;2.30;;
23113;SDS011;11726;50.122;8.832;2023-07-31T10:56:39;8.85;;;2.42;;
23113;SDS011;11726;50.122;8.832;2023-07-31T10:59:06;4.18;;;2.25;;
23113;SDS011;11726;50.122;8.832;2023-07-31T11:01:50;2.63;;;1.90;;
23113;SDS011;11726;50.122;8.832;2023-07-31T11:04:22;6.60;;;2.30;;
23113;SDS011;11726;50.122;8.832;2023-07-31T11:07:00;3.92;;;1.85;;
23113;SDS011;11726;50.122;8.832;2023-07-31T11:09:29;4.10;;;2.50;;
23113;SDS011;11726;50.122;8.832;2023-07-31T11:11:58;4.22;;;1.90;;
23113;SDS011;11726;50.122;8.832;2023-07-31T11:14:26;6.13;;;2.25;;
23113;SDS011;11726;50.122;8.832;2023-07-31T11:16:52;5.50;;;2.30;;
23113;SDS011;11726;50.122;8.832;2023-07-31T11:19:23;4.63;;;2.22;;
23113;SDS011;11726;50.122;8.832;2023-07-31T11:21:53;3.95;;;2.35;;
23113;SDS011;11726;50.122;8.832;2023-07-31T11:24:20;5.00;;;2.17;;
23113;SDS011;11726;50.122;8.832;2023-07-31T11:26:51;5.47;;;2.80;;
23113;SDS011;11726;50.122;8.832;2023-07-31T11:29:18;3.50;;;2.00;;
23113;SDS011;11726;50.122;8.832;2023-07-31T11:31:46;4.85;;;2.25;;
23113;SDS011;11726;50.122;8.832;2023-07-31T11:34:14;7.68;;;2.70;;
23113;SDS011;11726;50.122;8.832;2023-07-31T11:36:41;4.88;;;2.28;;
23113;SDS011;11726;50.122;8.832;2023-07-31T11:39:21;3.95;;;2.47;;
23113;SDS011;11726;50.122;8.832;2023-07-31T11:41:48;7.40;;;2.60;;
23113;SDS011;11726;50.122;8.832;2023-07-31T11:44:14;8.35;;;2.53;;
23113;SDS011;11726;50.122;8.832;2023-07-31T11:46:53;4.45;;;2.13;;
23113;SDS011;11726;50.122;8.832;2023-07-31T11:49:23;5.03;;;2.58;;
23113;SDS011;11726;50.122;8.832;2023-07-31T11:51:49;4.70;;;2.85;;
23113;SDS011;11726;50.122;8.832;2023-07-31T11:54:16;6.07;;;2.65;;
23113;SDS011;11726;50.122;8.832;2023-07-31T11:56:43;5.18;;;2.05;;
23113;SDS011;11726;50.122;8.832;2023-07-31T11:59:10;7.97;;;2.17;;
23113;SDS011;11726;50.122;8.832;2023-07-31T12:01:38;6.25;;;2.03;;
23113;SDS011;11726;50.122;8.832;2023-07-31T12:04:05;4.63;;;2.20;;
23113;SDS011;11726;50.122;8.832;2023-07-31T12:06:36;5.22;;;2.40;;
23113;SDS011;11726;50.122;8.832;2023-07-31T12:09:04;4.45;;;2.55;;
23113;SDS011;11726;50.122;8.832;2023-07-31T12:11:31;6.07;;;2.72;;
23113;SDS011;11726;50.122;8.832;2023-07-31T12:14:21;6.10;;;2.45;;
23113;SDS011;11726;50.122;8.832;2023-07-31T12:16:52;7.00;;;2.40;;
23113;SDS011;11726;50.122;8.832;2023-07-31T12:19:26;4.47;;;2.78;;
23113;SDS011;11726;50.122;8.832;2023-07-31T12:21:58;3.95;;;2.10;;
23113;SDS011;11726;50.122;8.832;2023-07-31T12:24:26;3.88;;;1.98;;
23113;SDS011;11726;50.122;8.832;2023-07-31T12:26:53;5.45;;;2.55;;
23113;SDS011;11726;50.122;8.832;2023-07-31T12:29:21;4.68;;;2.63;;
23113;SDS011;11726;50.122;8.832;2023-07-31T12:31:47;4.38;;;2.10;;
23113;SDS011;11726;50.122;8.832;2023-07-31T12:34:15;6.72;;;2.95;;
23113;SDS011;11726;50.122;8.832;2023-07-31T12:36:44;2.63;;;2.13;;
23113;SDS011;11726;50.122;8.832;2023-07-31T12:39:10;3.45;;;2.10;;
23113;SDS011;11726;50.122;8.832;2023-07-31T12:41:37;6.05;;;2.22;;
23113;SDS011;11726;50.122;8.832;2023-07-31T12:44:04;3.78;;;2.20;;
23113;SDS011;11726;50.122;8.832;2023-07-31T12:46:30;4.40;;;2.30;;
23113;SDS011;11726;50.122;8.832;2023-07-31T12:48:57;3.42;;;2.53;;
23113;SDS011;11726;50.122;8.832;2023-07-31T12:51:24;3.95;;;2.42;;
23113;SDS011;11726;50.122;8.832;2023-07-31T12:53:50;4.47;;;1.75;;
23113;SDS011;11726;50.122;8.832;2023-07-31T12:56:17;4.15;;;2.15;;
23113;SDS011;11726;50.122;8.832;2023-07-31T12:58:43;7.70;;;2.63;;
23113;SDS011;11726;50.122;8.832;2023-07-31T13:01:10;3.05;;;2.08;;
23113;SDS011;11726;50.122;8.832;2023-07-31T13:03:37;6.88;;;2.28;;
23113;SDS011;11726;50.122;8.832;2023-07-31T13:06:04;3.05;;;2.25;;
23113;SDS011;11726;50.122;8.832;2023-07-31T13:08:31;5.15;;;2.25;;
23113;SDS011;11726;50.122;8.832;2023-07-31T13:10:58;4.35;;;2.08;;
23113;SDS011;11726;50.122;8.832;2023-07-31T13:13:25;4.80;;;2.50;;
23113;SDS011;11726;50.122;8.832;2023-07-31T13:15:51;5.55;;;2.53;;
23113;SDS011;11726;50.122;8.832;2023-07-31T13:18:18;2.40;;;1.75;;
23113;SDS011;11726;50.122;8.832;2023-07-31T13:20:45;8.85;;;2.70;;
23113;SDS011;11726;50.122;8.832;2023-07-31T13:23:12;3.97;;;1.77;;
23113;SDS011;11726;50.122;8.832;2023-07-31T13:25:38;3.72;;;1.95;;
23113;SDS011;11726;50.122;8.832;2023-07-31T13:28:05;3.47;;;2.13;;
23113;SDS011;11726;50.122;8.832;2023-07-31T13:30:32;4.38;;;2.10;;
23113;SDS011;11726;50.122;8.832;2023-07-31T13:32:59;6.25;;;2.42;;
23113;SDS011;11726;50.122;8.832;2023-07-31T13:35:26;7.40;;;2.13;;
23113;SDS011;11726;50.122;8.832;2023-07-31T13:37:52;7.82;;;2.45;;
23113;SDS011;11726;50.122;8.832;2023-07-31T13:40:19;6.20;;;1.83;;
23113;SDS011;11726;50.122;8.832;2023-07-31T13:42:46;6.55;;;1.92;;
23113;SDS011;11726;50.122;8.832;2023-07-31T13:45:13;4.53;;;2.47;;
23113;SDS011;11726;50.122;8.832;2023-07-31T13:47:40;4.05;;;2.30;;
23113;SDS011;11726;50.122;8.832;2023-07-31T13:50:07;7.55;;;1.98;;
23113;SDS011;11726;50.122;8.832;2023-07-31T13:52:34;4.45;;;2.33;;
23113;SDS011;11726;50.122;8.832;2023-07-31T13:55:01;5.63;;;1.75;;
23113;SDS011;11726;50.122;8.832;2023-07-31T13:57:28;6.15;;;2.10;;
23113;SDS011;11726;50.122;8.832;2023-07-31T13:59:55;3.78;;;2.17;;
23113;SDS011;11726;50.122;8.832;2023-07-31T14:02:22;7.65;;;2.35;;
23113;SDS011;11726;50.122;8.832;2023-07-31T14:04:48;4.18;;;2.05;;
23113;SDS011;11726;50.122;8.832;2023-07-31T14:07:15;8.30;;;2.20;;
23113;SDS011;11726;50.122;8.832;2023-07-31T14:09:43;4.72;;;1.95;;
23113;SDS011;11726;50.122;8.832;2023-07-31T14:12:10;3.70;;;2.25;;
23113;SDS011;11726;50.122;8.832;2023-07-31T14:14:36;7.75;;;2.33;;
23113;SDS011;11726;50.122;8.832;2023-07-31T14:17:03;4.10;;;2.47;;
23113;SDS011;11726;50.122;8.832;2023-07-31T14:19:30;4.13;;;2.13;;
23113;SDS011;11726;50.122;8.832;2023-07-31T14:21:58;6.05;;;2.28;;
23113;SDS011;11726;50.122;8.832;2023-07-31T14:24:37;6.50;;;2.13;;
23113;SDS011;11726;50.122;8.832;2023-07-31T14:27:04;3.17;;;2.03;;
23113;SDS011;11726;50.122;8.832;2023-07-31T14:29:31;4.10;;;1.98;;
23113;SDS011;11726;50.122;8.832;2023-07-31T14:31:57;4.15;;;1.88;;
23113;SDS011;11726;50.122;8.832;2023-07-31T14:34:25;2.65;;;2.10;;
23113;SDS011;11726;50.122;8.832;2023-07-31T14:36:52;6.22;;;2.30;;
23113;SDS011;11726;50.122;8.832;2023-07-31T14:39:19;5.15;;;1.92;;
23113;SDS011;11726;50.122;8.832;2023-07-31T14:41:45;3.22;;;1.98;;
23113;SDS011;11726;50.122;8.832;2023-07-31T14:44:12;2.80;;;1.83;;
23113;SDS011;11726;50.122;8.832;2023-07-31T14:46:39;3.38;;;2.10;;
23113;SDS011;11726;50.122;8.832;2023-07-31T14:49:06;4.18;;;2.10;;
23113;SDS011;11726;50.122;8.832;2023-07-31T14:51:32;3.80;;;1.98;;
23113;SDS011;11726;50.122;8.832;2023-07-31T14:53:59;6.40;;;1.95;;
23113;SDS011;11726;50.122;8.832;2023-07-31T14:56:26;8.25;;;2.50;;